Silver City, Nevada
Current Conditions -  °F | °C
As of 9:55 AM on Saturday 20 Dec 2014 (Local Time) from KCXP Reporting Station
Broken Clouds Broken Clouds  
Wind Chill: 43°   Ceiling: 4400
Heat Index: 46°   Visibility: 10mi
Dew Point: 34°   Wind: 7mph
Humidity: 62%   Direction: 210°SSW
Pressure: 30.14"   Gusts: NA
Location:  39.26°N, 119.64°W
Report Text: KCXP 201755Z AUTO 21006KT 10SM BKN044 BKN050 BKN120 08/01 A3014 RMK AO2
Loading
Personal Weather Stations






























Interactive Weather Map New forecast layout! Learn more

10-Day Weather Forecast

Advertisements
Track Severe Weather on mobile